Time;durP1;ratioP1;P1;durP2;ratioP2;P2;SDS_P1;SDS_P2;PMS_P1;PMS_P2;Temp;Humidity;BMP_temperature;BMP_pressure;BME280_temperature;BME280_humidity;BME280_pressure;Samples;Min_cycle;Max_cycle;Signal;HPM_P1;HPM_P2
2023/10/09 00:03:01;;;;;;;9.17;5.00;;;;;;;19.53;55.84;97361.41;4991079;28;20626;-70
2023/10/09 00:05:40;;;;;;;12.77;4.20;;;;;;;19.43;55.92;97363.88;4990438;28;20199;-71
2023/10/09 00:08:09;;;;;;;13.50;4.13;;;;;;;19.35;55.87;97360.97;4990772;28;20211;-70
2023/10/09 00:10:45;;;;;;;19.13;5.47;;;;;;;19.31;55.87;97370.00;4990456;28;20205;-70
2023/10/09 00:13:13;;;;;;;12.90;4.33;;;;;;;19.21;56.42;97358.53;5006106;28;20602;-70
2023/10/09 00:15:42;;;;;;;10.13;3.67;;;;;;;19.04;56.13;97356.31;4990972;28;20199;-69
2023/10/09 00:18:12;;;;;;;14.83;5.03;;;;;;;19.00;56.42;97354.88;4990795;28;20195;-71
2023/10/09 00:20:42;;;;;;;13.13;4.60;;;;;;;18.89;56.85;97336.47;4991393;28;20276;-70
2023/10/09 00:23:15;;;;;;;14.93;5.13;;;;;;;18.84;57.02;97351.72;4990598;28;20195;-72
2023/10/09 00:26:08;;;;;;;11.67;4.27;;;;;;;18.93;56.59;97356.31;4995105;28;20197;-76
2023/10/09 00:28:43;;;;;;;13.37;4.53;;;;;;;18.84;56.85;97348.25;4995598;28;20191;-71
2023/10/09 00:31:15;;;;;;;14.67;4.90;;;;;;;18.75;56.56;97344.53;4975681;28;20254;-73
2023/10/09 00:33:44;;;;;;;15.33;4.60;;;;;;;18.77;56.78;97336.53;4990701;28;20205;-73
2023/10/09 00:36:18;;;;;;;10.40;5.20;;;;;;;18.77;56.88;97354.91;4990242;28;20278;-72
2023/10/09 00:38:54;;;;;;;11.03;5.37;;;;;;;18.48;57.55;97336.06;4990325;28;20222;-70
2023/10/09 00:41:24;;;;;;;13.60;4.47;;;;;;;18.29;57.86;97338.28;5004522;28;20310;-70
2023/10/09 00:43:52;;;;;;;11.17;4.50;;;;;;;18.11;58.59;97329.13;4989890;28;20314;-73
2023/10/09 00:48:55;;;;;;;14.90;5.13;;;;;;;18.09;58.67;97342.34;4990719;28;20222;-71
2023/10/09 00:51:24;;;;;;;11.70;3.73;;;;;;;17.95;58.31;97326.72;5008501;28;20190;-75
2023/10/09 00:53:57;;;;;;;10.33;4.13;;;;;;;18.00;57.76;97314.16;4997920;28;20252;-72
2023/10/09 00:59:08;;;;;;;12.07;3.40;;;;;;;18.08;57.75;97326.69;5001762;28;20182;-86
2023/10/09 01:01:40;;;;;;;7.40;2.87;;;;;;;17.88;58.19;97310.63;5019087;28;20217;-84
2023/10/09 01:04:11;;;;;;;11.30;3.27;;;;;;;18.13;57.55;97317.59;5006253;28;20204;-83
2023/10/09 01:06:44;;;;;;;7.87;3.23;;;;;;;18.13;56.81;97291.38;5004045;28;20629;-83
2023/10/09 01:09:14;;;;;;;6.37;3.00;;;;;;;18.20;56.81;97320.56;5007036;28;20194;-82
2023/10/09 01:11:48;;;;;;;6.60;3.10;;;;;;;18.11;56.65;97326.50;5002527;28;20195;-83
2023/10/09 01:14:16;;;;;;;10.90;3.03;;;;;;;18.25;56.74;97339.44;5001499;28;20690;-83
2023/10/09 01:16:44;;;;;;;6.63;3.33;;;;;;;18.09;57.40;97355.44;5006614;28;20248;-79
2023/10/09 01:19:23;;;;;;;7.47;2.90;;;;;;;17.98;57.60;97344.88;5000032;28;20257;-82
2023/10/09 01:21:52;;;;;;;9.37;3.37;;;;;;;18.00;57.51;97350.00;5003942;28;20253;-80
2023/10/09 01:24:19;;;;;;;7.50;2.97;;;;;;;17.87;57.84;97358.72;5009944;28;20684;-86
2023/10/09 01:26:47;;;;;;;6.30;3.13;;;;;;;17.96;58.19;97361.63;5010824;28;20937;-87
2023/10/09 01:29:21;;;;;;;6.40;2.73;;;;;;;17.71;58.61;97355.50;5007379;28;20598;-87
2023/10/09 01:32:00;;;;;;;9.97;3.27;;;;;;;17.71;58.33;97363.34;5007842;28;20190;-74
2023/10/09 01:34:38;;;;;;;6.07;2.50;;;;;;;17.68;58.72;97370.59;5009075;28;20561;-75
2023/10/09 01:37:22;;;;;;;12.50;3.10;;;;;;;17.87;58.05;97365.72;5006825;28;20735;-87
2023/10/09 01:39:52;;;;;;;12.33;3.30;;;;;;;17.83;57.92;97361.66;5008957;28;20210;-81
2023/10/09 01:42:24;;;;;;;10.13;3.00;;;;;;;17.86;57.51;97370.16;5008721;28;20271;-88
2023/10/09 01:44:52;;;;;;;8.60;2.63;;;;;;;17.70;58.53;97377.38;5007316;28;20281;-86
2023/10/09 01:47:21;;;;;;;9.40;3.13;;;;;;;17.62;58.58;97361.34;5007642;28;20642;-88
2023/10/09 01:49:49;;;;;;;4.53;2.20;;;;;;;17.56;58.80;97361.78;5010994;28;20225;-81
2023/10/09 01:52:16;;;;;;;7.27;2.67;;;;;;;17.47;59.03;97365.00;5021708;28;20230;-74
2023/10/09 01:54:49;;;;;;;7.63;2.30;;;;;;;17.45;59.10;97359.03;5024954;28;20225;-85
2023/10/09 01:57:30;;;;;;;6.03;3.00;;;;;;;17.52;58.82;97368.16;5010804;28;20206;-85
2023/10/09 01:59:59;;;;;;;5.73;2.70;;;;;;;17.71;58.44;97386.09;5013557;28;20193;-81
2023/10/09 02:02:35;;;;;;;6.80;2.50;;;;;;;17.94;57.16;97408.09;5044285;28;20276;-76
2023/10/09 02:05:09;;;;;;;11.77;3.27;;;;;;;18.11;56.74;97413.84;5018864;28;20198;-72
2023/10/09 02:07:52;;;;;;;6.47;2.23;;;;;;;18.37;56.32;97428.56;5008113;28;20251;-85
2023/10/09 02:13:06;;;;;;;7.57;2.60;;;;;;;18.42;55.97;97430.88;5006816;28;20203;-88
2023/10/09 02:29:04;;;;;;;4.13;1.90;;;;;;;17.81;56.73;97455.25;5000223;28;20220;-83
2023/10/09 02:31:43;;;;;;;7.63;2.60;;;;;;;17.18;57.63;97412.41;5012745;28;20287;-86
2023/10/09 02:34:12;;;;;;;14.80;2.77;;;;;;;17.17;58.41;97469.13;5010811;28;20201;-86
2023/10/09 02:36:43;;;;;;;6.17;2.63;;;;;;;16.95;58.88;97471.47;5010505;28;20193;-82
2023/10/09 02:39:22;;;;;;;5.93;2.50;;;;;;;16.30;60.33;97454.66;5021952;28;20196;-86
2023/10/09 02:42:19;;;;;;;5.87;2.17;;;;;;;16.20;61.19;97469.22;5016641;28;20216;-86
2023/10/09 02:44:49;;;;;;;10.63;3.83;;;;;;;16.13;61.00;97475.78;5008196;28;20201;-86
2023/10/09 02:47:29;;;;;;;7.00;2.13;;;;;;;15.89;60.97;97465.00;5007174;28;20207;-86
2023/10/09 02:50:06;;;;;;;16.40;2.47;;;;;;;16.17;60.48;97491.19;5007326;28;20240;-86
2023/10/09 02:52:40;;;;;;;6.73;2.00;;;;;;;16.24;60.18;97500.31;5009700;28;20199;-83
2023/10/09 02:55:17;;;;;;;4.57;1.80;;;;;;;16.16;60.05;97481.63;5020534;28;20223;-79
2023/10/09 02:57:45;;;;;;;10.00;2.00;;;;;;;16.42;59.04;97510.56;5016145;28;20187;-82
2023/10/09 03:00:29;;;;;;;8.63;2.20;;;;;;;16.08;59.86;97522.22;5012274;28;20671;-84
2023/10/09 03:02:58;;;;;;;8.00;2.10;;;;;;;15.48;61.18;97529.28;5010024;28;20206;-87
2023/10/09 03:05:29;;;;;;;4.87;1.80;;;;;;;15.02;62.65;97519.72;4991647;28;20195;-85
2023/10/09 03:07:56;;;;;;;5.37;2.40;;;;;;;15.19;62.36;97530.91;5007261;28;20686;-81
2023/10/09 03:10:25;;;;;;;4.83;1.87;;;;;;;15.04;61.59;97510.91;5007770;28;20210;-80
2023/10/09 03:12:55;;;;;;;13.17;1.90;;;;;;;15.37;61.33;97548.13;5010251;28;20196;-84
2023/10/09 03:15:22;;;;;;;10.97;2.10;;;;;;;15.66;60.21;97548.28;5012655;28;20219;-74
2023/10/09 03:17:51;;;;;;;9.03;1.87;;;;;;;15.94;59.32;97549.19;4994262;28;20204;-86
2023/10/09 03:20:19;;;;;;;4.70;1.90;;;;;;;16.04;59.30;97563.38;4991062;28;20545;-75
2023/10/09 03:22:49;;;;;;;7.47;3.00;;;;;;;15.61;59.87;97551.16;4992305;28;20239;-86
2023/10/09 03:25:19;;;;;;;4.40;1.60;;;;;;;15.56;60.27;97566.22;4993540;28;20193;-76
2023/10/09 03:27:51;;;;;;;5.87;1.90;;;;;;;15.67;59.89;97553.41;4993738;28;20196;-85
2023/10/09 03:30:25;;;;;;;8.43;2.17;;;;;;;15.62;59.90;97562.44;4992247;28;20188;-87
2023/10/09 03:32:53;;;;;;;6.70;1.47;;;;;;;15.09;61.24;97565.41;5005257;28;20213;-86
2023/10/09 03:35:27;;;;;;;5.07;1.63;;;;;;;14.69;62.46;97566.75;4991733;28;20204;-86
2023/10/09 03:38:00;;;;;;;6.30;1.80;;;;;;;14.68;62.96;97575.47;5010571;28;20306;-83
2023/10/09 03:40:28;;;;;;;4.20;2.00;;;;;;;15.08;61.43;97579.38;5010986;28;20194;-79
2023/10/09 03:42:55;;;;;;;6.53;2.00;;;;;;;14.88;61.91;97579.63;5010120;28;20769;-80
2023/10/09 03:45:26;;;;;;;7.47;2.23;;;;;;;14.56;62.53;97570.94;5009502;28;20242;-80
2023/10/09 03:48:22;;;;;;;2.67;1.60;;;;;;;14.47;62.85;97572.25;5010383;28;20211;-88
2023/10/09 03:50:45;;;;;;;6.73;1.73;;;;;;;14.17;63.32;97576.44;5010944;28;20188;-85
2023/10/09 03:53:16;;;;;;;3.27;1.60;;;;;;;14.28;63.33;97576.72;4999706;28;20196;-85
2023/10/09 03:55:44;;;;;;;5.20;2.03;;;;;;;14.18;63.23;97585.09;4989327;28;20265;-87
2023/10/09 03:58:15;;;;;;;5.00;1.80;;;;;;;13.94;64.04;97587.16;4991404;28;20192;-85
2023/10/09 04:00:45;;;;;;;4.80;1.53;;;;;;;14.08;63.04;97583.84;4989558;28;20200;-83
2023/10/09 04:03:15;;;;;;;4.93;1.70;;;;;;;14.13;62.76;97598.34;4989472;28;20208;-84
2023/10/09 04:05:43;;;;;;;7.93;1.50;;;;;;;14.11;62.40;97594.97;4990256;28;20231;-78
2023/10/09 04:08:20;;;;;;;9.07;2.30;;;;;;;14.13;60.92;97592.28;4990539;28;20199;-75
2023/10/09 04:10:54;;;;;;;3.97;1.33;;;;;;;14.23;60.18;97602.16;4989728;28;20703;-84
2023/10/09 04:13:32;;;;;;;3.27;2.23;;;;;;;13.78;60.68;97610.53;4990839;28;20796;-85
2023/10/09 04:18:52;;;;;;;5.83;1.60;;;;;;;13.86;59.72;97615.34;5009853;28;20191;-81
2023/10/09 04:21:19;;;;;;;4.97;1.50;;;;;;;13.70;60.06;97630.03;4989924;28;20578;-86
2023/10/09 04:26:34;;;;;;;5.80;1.43;;;;;;;13.57;58.65;97634.16;5008697;28;20214;-84
2023/10/09 04:29:02;;;;;;;4.27;1.33;;;;;;;13.40;58.73;97657.50;4997699;28;20201;-82
2023/10/09 04:31:37;;;;;;;4.60;1.67;;;;;;;13.64;57.84;97651.16;4991271;28;20240;-85
2023/10/09 04:37:36;;;;;;;4.07;1.30;;;;;;;13.36;58.30;97677.63;4992443;28;20192;-83
2023/10/09 04:39:47;;;;;;;4.80;1.70;;;;;;;13.44;57.88;97677.25;4989389;28;20293;-88
2023/10/09 04:47:36;;;;;;;5.27;1.83;;;;;;;13.61;56.77;97682.53;4988986;28;20202;-84
2023/10/09 05:03:04;;;;;;;2.27;1.60;;;;;;;14.41;53.26;97699.41;4988464;28;20219;-77
2023/10/09 05:13:42;;;;;;;13.83;1.77;;;;;;;14.00;53.26;97722.28;4987214;28;20655;-71
2023/10/09 05:16:25;;;;;;;8.83;1.60;;;;;;;13.81;52.76;97726.66;4989517;28;20202;-71
2023/10/09 05:19:08;;;;;;;6.50;1.53;;;;;;;13.62;53.47;97720.66;4989472;28;20742;-73
2023/10/09 05:35:06;;;;;;;3.53;2.00;;;;;;;14.90;49.13;97760.34;4992367;28;20192;-75
2023/10/09 05:37:34;;;;;;;6.10;1.60;;;;;;;14.71;49.03;97767.41;4991833;28;20203;-73
2023/10/09 05:42:57;;;;;;;7.33;3.50;;;;;;;15.23;48.00;97767.25;4989193;28;20231;-85
2023/10/09 05:46:07;;;;;;;6.03;2.63;;;;;;;14.99;48.43;97783.34;4990139;28;20191;-76
2023/10/09 06:04:33;;;;;;;6.70;3.77;;;;;;;14.45;49.03;97824.28;5008312;28;20288;-74
2023/10/09 06:07:11;;;;;;;6.47;3.03;;;;;;;14.62;48.33;97836.50;5006990;28;20306;-72
2023/10/09 06:09:52;;;;;;;5.47;2.47;;;;;;;14.12;49.31;97836.28;5007276;28;20195;-75
2023/10/09 06:16:41;;;;;;;3.50;1.30;;;;;;;14.96;47.39;97846.09;5007029;28;20623;-70
2023/10/09 06:19:45;;;;;;;5.23;1.80;;;;;;;15.29;47.35;97842.59;5003941;28;20224;-72
2023/10/09 06:23:15;;;;;;;3.43;1.60;;;;;;;15.76;46.29;97842.78;5025880;28;20223;-72
2023/10/09 06:26:05;;;;;;;6.60;3.27;;;;;;;15.40;47.90;97842.91;5023997;28;20198;-80
2023/10/09 06:28:32;;;;;;;5.10;2.33;;;;;;;15.61;47.00;97843.56;5023783;28;20369;-78
2023/10/09 06:31:46;;;;;;;4.30;2.27;;;;;;;15.52;46.14;97857.09;5007625;28;20211;-80
2023/10/09 06:34:08;;;;;;;4.87;2.37;;;;;;;15.34;46.76;97848.44;5008417;28;20195;-81
2023/10/09 06:36:50;;;;;;;7.43;2.23;;;;;;;15.41;46.66;97856.81;5007908;28;20195;-81
2023/10/09 06:45:18;;;;;;;5.07;2.00;;;;;;;15.68;46.34;97875.44;5005565;28;20642;-77
2023/10/09 06:51:07;;;;;;;10.37;3.33;;;;;;;15.73;46.69;97887.31;4984183;28;20589;-71
2023/10/09 07:01:44;;;;;;;6.03;3.43;;;;;;;15.74;46.95;97907.31;5006071;28;20215;-70
2023/10/09 07:04:18;;;;;;;6.70;3.10;;;;;;;15.63;46.92;97912.22;5018298;28;20279;-73
2023/10/09 07:06:51;;;;;;;12.30;3.93;;;;;;;15.56;46.82;97918.69;5021900;28;20234;-74
2023/10/09 07:09:19;;;;;;;4.60;1.70;;;;;;;15.41;46.54;97903.78;5012256;28;20203;-78
2023/10/09 07:17:16;;;;;;;4.03;1.47;;;;;;;15.99;46.00;97919.91;5007912;28;20686;-73
2023/10/09 07:25:02;;;;;;;3.63;1.77;;;;;;;16.06;45.62;97921.25;5006415;28;20199;-69
2023/10/09 07:27:51;;;;;;;5.80;3.33;;;;;;;16.05;45.35;97919.59;5007242;28;20196;-71
2023/10/09 07:38:28;;;;;;;3.50;1.83;;;;;;;16.66;44.14;97915.31;5006993;28;20196;-71
2023/10/09 07:46:30;;;;;;;4.30;1.93;;;;;;;16.54;43.87;97908.16;4984410;28;20208;-73
2023/10/09 07:49:09;;;;;;;9.13;2.57;;;;;;;16.37;43.97;97915.22;5006689;28;20228;-78
2023/10/09 07:51:38;;;;;;;5.50;2.07;;;;;;;16.27;44.35;97920.94;5019998;28;20262;-83
2023/10/09 07:55:02;;;;;;;2.93;1.67;;;;;;;16.14;43.44;97925.16;5009305;28;20223;-76
2023/10/09 07:57:38;;;;;;;4.73;1.80;;;;;;;16.33;43.88;97916.31;4987740;28;20279;-74
2023/10/09 08:00:35;;;;;;;6.83;2.33;;;;;;;16.38;43.50;97927.38;4997540;28;20303;-74
2023/10/09 08:03:00;;;;;;;3.17;2.20;;;;;;;16.43;43.77;97925.31;4992922;28;20317;-77
2023/10/09 08:05:44;;;;;;;6.60;2.80;;;;;;;16.59;43.35;97928.84;5012444;28;20179;-72
2023/10/09 08:08:39;;;;;;;5.43;2.70;;;;;;;16.22;43.03;97909.88;4995440;28;20229;-82
2023/10/09 08:17:28;;;;;;;3.27;2.50;;;;;;;15.73;45.09;97939.56;5009429;28;20198;-76
2023/10/09 08:19:57;;;;;;;2.20;1.50;;;;;;;15.91;44.86;97935.16;4998246;28;20295;-72
2023/10/09 08:24:58;;;;;;;11.13;5.83;;;;;;;16.25;44.04;97938.50;5008655;28;20208;-77
2023/10/09 08:30:49;;;;;;;1.80;1.50;;;;;;;15.91;43.56;97943.81;5008636;28;20191;-70
2023/10/09 08:36:36;;;;;;;5.07;2.13;;;;;;;16.05;43.48;97938.69;5016235;28;20275;-80
2023/10/09 08:39:25;;;;;;;4.20;2.13;;;;;;;16.04;43.84;97934.41;5012717;28;20207;-85
2023/10/09 08:42:01;;;;;;;5.13;2.07;;;;;;;15.86;43.13;97922.31;5014475;28;20725;-80
2023/10/09 08:44:32;;;;;;;3.10;2.50;;;;;;;15.36;44.56;97931.88;5016880;28;20191;-72
2023/10/09 08:47:00;;;;;;;4.43;2.03;;;;;;;15.08;44.19;97885.47;5014208;28;20204;-84
2023/10/09 08:49:28;;;;;;;7.77;3.83;;;;;;;15.55;44.20;97937.03;4995970;28;20646;-75
2023/10/09 08:51:56;;;;;;;4.57;2.47;;;;;;;15.92;43.71;97922.00;5013080;28;20232;-80
2023/10/09 08:54:23;;;;;;;4.97;1.77;;;;;;;16.08;42.56;97915.03;5015209;28;20715;-81
2023/10/09 08:56:50;;;;;;;6.17;3.40;;;;;;;16.25;42.64;97933.25;5013953;28;20227;-77
2023/10/09 08:59:20;;;;;;;5.07;1.80;;;;;;;15.43;43.24;97933.31;4996214;28;20203;-83
2023/10/09 09:01:51;;;;;;;3.03;1.50;;;;;;;15.38;43.72;97932.63;4996616;28;20218;-71
2023/10/09 09:04:41;;;;;;;5.73;3.03;;;;;;;15.08;44.51;97945.47;5013380;28;20199;-74
2023/10/09 09:07:28;;;;;;;13.87;6.20;;;;;;;15.48;43.77;97933.06;4989012;28;20197;-70
2023/10/09 09:10:00;;;;;;;4.67;2.03;;;;;;;15.48;44.88;97929.53;4988980;28;20208;-71
2023/10/09 09:12:37;;;;;;;7.63;2.17;;;;;;;15.56;44.37;97916.06;4987539;28;20200;-75
2023/10/09 09:15:19;;;;;;;5.33;2.33;;;;;;;16.01;44.06;97913.66;5005207;28;20211;-73
2023/10/09 09:17:49;;;;;;;5.50;2.13;;;;;;;16.39;43.01;97913.34;5002736;28;20201;-76
2023/10/09 09:20:25;;;;;;;5.23;3.07;;;;;;;16.57;42.50;97920.25;4989241;28;20193;-79
2023/10/09 09:22:56;;;;;;;5.23;1.60;;;;;;;16.73;42.00;97929.72;4990110;28;20795;-81
2023/10/09 09:25:25;;;;;;;4.30;1.40;;;;;;;16.69;42.10;97922.16;4989875;28;20212;-84
2023/10/09 09:27:54;;;;;;;6.83;1.53;;;;;;;15.69;43.10;97917.13;4992746;28;20266;-84
2023/10/09 09:30:31;;;;;;;5.23;3.03;;;;;;;15.87;43.41;97910.09;4975581;28;20200;-74
2023/10/09 09:33:20;;;;;;;3.53;1.87;;;;;;;16.21;42.96;97905.59;4988585;28;20659;-88
2023/10/09 09:36:02;;;;;;;7.53;2.23;;;;;;;16.75;42.12;97900.88;4990810;28;20206;-88
2023/10/09 09:38:49;;;;;;;2.13;1.50;;;;;;;16.95;42.17;97898.81;5003278;28;20293;-77
2023/10/09 09:41:24;;;;;;;8.60;1.90;;;;;;;17.02;41.39;97894.09;4999150;28;20226;-83
2023/10/09 09:44:05;;;;;;;5.53;1.90;;;;;;;16.82;41.42;97889.13;5007901;28;20255;-72
2023/10/09 09:46:35;;;;;;;4.00;1.90;;;;;;;17.03;42.12;97883.53;5006624;28;20628;-73
2023/10/09 09:49:16;;;;;;;8.53;2.23;;;;;;;17.45;41.82;97888.00;5008310;28;20183;-80
2023/10/09 09:51:46;;;;;;;3.67;1.83;;;;;;;17.17;41.40;97880.09;5006279;28;20281;-83
2023/10/09 09:54:17;;;;;;;2.03;1.37;;;;;;;17.03;41.18;97880.91;5007220;28;20610;-71
2023/10/09 09:56:52;;;;;;;2.50;1.40;;;;;;;16.90;41.43;97860.75;5008016;28;20247;-81
2023/10/09 09:59:27;;;;;;;5.77;2.10;;;;;;;17.62;41.28;97856.44;5012278;28;20729;-84
2023/10/09 10:02:06;;;;;;;4.40;1.70;;;;;;;17.68;40.69;97848.19;5008874;28;20254;-75
2023/10/09 10:04:44;;;;;;;3.23;1.57;;;;;;;17.68;40.61;97853.44;4987106;28;20296;-82
2023/10/09 10:07:15;;;;;;;3.97;1.63;;;;;;;16.77;42.97;97834.47;4986798;28;20647;-82
2023/10/09 10:09:44;;;;;;;3.10;1.37;;;;;;;16.94;42.69;97849.16;4986437;28;20240;-77
2023/10/09 10:12:14;;;;;;;2.77;1.30;;;;;;;17.57;41.98;97834.06;4987318;28;20198;-79
2023/10/09 10:15:17;;;;;;;3.70;1.73;;;;;;;18.25;41.17;97837.63;4988394;28;20191;-81
2023/10/09 10:17:58;;;;;;;5.13;1.57;;;;;;;18.57;40.41;97824.16;4973368;28;20206;-81
2023/10/09 10:20:27;;;;;;;4.20;2.43;;;;;;;18.94;40.03;97811.25;4989179;28;20294;-84
2023/10/09 10:23:17;;;;;;;3.67;1.63;;;;;;;19.09;39.48;97825.97;5004930;28;20297;-77
2023/10/09 10:25:49;;;;;;;1.73;1.30;;;;;;;19.02;39.88;97820.28;4987456;28;20277;-71
2023/10/09 10:28:35;;;;;;;5.47;3.00;;;;;;;18.99;39.81;97810.00;4988083;28;20199;-72
2023/10/09 10:31:04;;;;;;;5.23;2.03;;;;;;;19.07;39.66;97799.81;4988780;28;20597;-71
2023/10/09 10:33:54;;;;;;;2.80;1.80;;;;;;;19.13;39.56;97793.31;4987596;28;20187;-71
2023/10/09 10:36:23;;;;;;;4.30;1.50;;;;;;;19.16;39.91;97770.31;4987607;28;20196;-73
2023/10/09 10:39:21;;;;;;;3.17;1.83;;;;;;;19.33;39.81;97766.53;4987186;28;20690;-72
2023/10/09 10:41:57;;;;;;;4.13;1.60;;;;;;;19.48;40.21;97754.97;4991391;28;20210;-73
2023/10/09 10:44:33;;;;;;;3.63;1.60;;;;;;;19.33;39.76;97772.63;4995081;28;20297;-74
2023/10/09 10:47:01;;;;;;;7.73;2.23;;;;;;;19.28;39.91;97769.47;4987243;28;20233;-74
2023/10/09 10:49:38;;;;;;;3.60;2.00;;;;;;;19.51;39.14;97759.19;4989080;28;20211;-71
2023/10/09 10:52:18;;;;;;;5.03;1.87;;;;;;;19.39;39.47;97732.81;4969943;28;20654;-74
2023/10/09 10:54:46;;;;;;;5.47;1.77;;;;;;;19.40;39.93;97738.91;4986795;28;20216;-71
2023/10/09 10:57:28;;;;;;;6.70;2.40;;;;;;;19.53;39.27;97731.00;4988426;28;20191;-81
2023/10/09 11:00:13;;;;;;;7.63;2.27;;;;;;;19.57;38.81;97730.69;4989641;28;20405;-72
2023/10/09 11:02:47;;;;;;;6.67;2.03;;;;;;;19.55;38.84;97713.34;4989677;28;20241;-75
2023/10/09 11:05:24;;;;;;;3.83;1.80;;;;;;;19.56;39.24;97710.59;4987279;28;20225;-71
2023/10/09 11:07:57;;;;;;;4.13;1.90;;;;;;;19.57;39.00;97727.22;4987369;28;20249;-70
2023/10/09 11:10:28;;;;;;;1.40;1.30;;;;;;;18.98;39.53;97697.22;4987284;28;20199;-70
2023/10/09 11:15:56;;;;;;;7.40;2.17;;;;;;;19.22;39.41;97699.00;4985386;28;20203;-69
2023/10/09 11:18:27;;;;;;;3.73;1.90;;;;;;;19.53;38.99;97699.47;4984952;28;20642;-71
2023/10/09 11:29:16;;;;;;;5.77;2.63;;;;;;;19.93;38.45;97675.47;4987720;28;20186;-72
2023/10/09 11:32:05;;;;;;;3.07;2.30;;;;;;;19.80;38.39;97676.47;4992063;28;20282;-72
2023/10/09 11:34:38;;;;;;;2.63;2.17;;;;;;;19.53;38.41;97623.28;4985135;28;20651;-71
2023/10/09 11:37:10;;;;;;;6.03;2.20;;;;;;;19.46;39.07;97672.78;4990375;28;20203;-72
2023/10/09 11:39:50;;;;;;;3.13;1.77;;;;;;;19.15;39.45;97658.34;4988850;28;20693;-71
2023/10/09 11:42:35;;;;;;;4.10;2.20;;;;;;;19.10;39.79;97651.75;4989362;28;20656;-74
2023/10/09 11:45:24;;;;;;;5.00;1.87;;;;;;;19.31;39.38;97643.16;4972918;28;20601;-71
2023/10/09 11:47:59;;;;;;;4.03;1.90;;;;;;;19.44;39.41;97638.75;4988421;28;20294;-70
2023/10/09 11:51:05;;;;;;;3.40;1.57;;;;;;;19.65;38.47;97630.28;4990174;28;20607;-74
2023/10/09 11:53:43;;;;;;;5.03;2.20;;;;;;;19.89;38.56;97631.94;4989832;28;20195;-71
2023/10/09 11:56:14;;;;;;;5.87;2.97;;;;;;;19.95;38.52;97622.75;4989961;28;20215;-71
2023/10/09 11:58:41;;;;;;;2.87;1.70;;;;;;;20.11;38.25;97634.66;4990411;28;20292;-70
2023/10/09 12:01:22;;;;;;;6.27;2.10;;;;;;;20.05;38.45;97619.34;4989448;28;20263;-72
2023/10/09 12:03:53;;;;;;;6.93;2.10;;;;;;;20.11;38.05;97607.53;4988951;28;20233;-70
2023/10/09 12:06:29;;;;;;;4.60;1.90;;;;;;;20.14;38.09;97613.41;4989251;28;20188;-69
2023/10/09 12:08:59;;;;;;;4.10;2.30;;;;;;;20.10;38.48;97596.19;4971996;28;20253;-70
2023/10/09 12:11:29;;;;;;;3.90;1.93;;;;;;;20.22;37.93;97600.56;4989339;28;20184;-73
2023/10/09 12:13:58;;;;;;;3.40;1.70;;;;;;;20.03;38.30;97575.72;4990632;28;20203;-71
2023/10/09 12:16:28;;;;;;;3.17;1.90;;;;;;;20.23;37.68;97591.72;4990825;28;20262;-70
2023/10/09 12:18:59;;;;;;;2.17;1.83;;;;;;;19.86;38.60;97571.72;4989438;28;20196;-75
2023/10/09 12:21:31;;;;;;;3.50;1.93;;;;;;;20.12;37.75;97588.16;4989969;28;20229;-71
2023/10/09 12:23:58;;;;;;;3.33;1.93;;;;;;;20.13;37.97;97574.09;4989224;28;20290;-70
2023/10/09 12:26:34;;;;;;;4.17;1.50;;;;;;;20.36;38.36;97569.75;4988829;28;20188;-71
2023/10/09 12:29:10;;;;;;;5.13;1.70;;;;;;;20.30;37.59;97551.78;4989698;28;20683;-72
2023/10/09 12:31:39;;;;;;;3.93;1.63;;;;;;;20.13;37.58;97568.81;4987626;28;20198;-72
2023/10/09 12:34:08;;;;;;;4.07;1.70;;;;;;;20.09;37.96;97567.38;4956619;28;20200;-70
2023/10/09 12:36:37;;;;;;;5.93;1.90;;;;;;;20.17;37.90;97549.22;4987894;28;20192;-71
2023/10/09 12:39:05;;;;;;;4.30;2.50;;;;;;;20.13;38.42;97548.59;4989870;28;20188;-71
2023/10/09 12:41:35;;;;;;;7.70;2.30;;;;;;;20.48;38.08;97548.59;4989350;28;20201;-72
2023/10/09 12:44:02;;;;;;;3.57;2.00;;;;;;;20.48;38.57;97548.59;4989589;28;20224;-71
2023/10/09 12:46:37;;;;;;;4.63;2.00;;;;;;;20.49;37.35;97547.63;4988595;28;20204;-71
2023/10/09 12:49:05;;;;;;;5.30;3.20;;;;;;;20.50;37.73;97525.63;4988171;28;20697;-71
2023/10/09 12:51:33;;;;;;;5.80;2.40;;;;;;;20.59;37.20;97540.69;4989530;28;20695;-71
2023/10/09 12:54:01;;;;;;;4.33;1.63;;;;;;;20.65;36.74;97537.56;4988417;28;20199;-71
2023/10/09 12:56:38;;;;;;;4.20;1.67;;;;;;;20.57;37.81;97531.22;4988725;28;20291;-74
2023/10/09 12:59:14;;;;;;;20.27;4.17;;;;;;;20.51;37.08;97532.53;4989845;28;20210;-74
2023/10/09 13:01:42;;;;;;;96.37;9.57;;;;;;;20.51;37.63;97514.13;4987361;28;20195;-71
2023/10/09 13:04:12;;;;;;;8.90;1.77;;;;;;;20.43;37.26;97506.00;4989402;28;20227;-72
2023/10/09 13:06:43;;;;;;;5.50;2.50;;;;;;;20.54;37.65;97506.00;4970954;28;20262;-71
2023/10/09 13:09:15;;;;;;;5.13;2.87;;;;;;;20.23;36.83;97459.34;4987674;28;20200;-76
2023/10/09 13:11:43;;;;;;;4.33;2.20;;;;;;;20.62;36.83;97511.50;4970466;28;20196;-71
2023/10/09 13:14:16;;;;;;;3.13;1.90;;;;;;;20.78;36.72;97511.13;4988619;28;20196;-72
2023/10/09 13:16:47;;;;;;;5.70;2.10;;;;;;;20.70;37.45;97509.09;4988549;28;20193;-71
2023/10/09 13:19:14;;;;;;;7.67;1.80;;;;;;;20.60;37.85;97520.47;4986959;28;20199;-72
2023/10/09 13:21:45;;;;;;;3.97;2.57;;;;;;;20.48;37.33;97517.00;4988688;28;20192;-71
2023/10/09 13:24:15;;;;;;;6.63;3.10;;;;;;;20.76;36.94;97505.97;4987659;28;20223;-71
2023/10/09 13:26:51;;;;;;;5.47;1.83;;;;;;;20.69;36.78;97496.06;4970856;28;20577;-72
2023/10/09 13:29:24;;;;;;;3.43;1.50;;;;;;;20.64;36.93;97487.69;4986633;28;20632;-71
2023/10/09 13:32:02;;;;;;;2.57;1.70;;;;;;;20.55;37.46;97462.94;4986753;28;20192;-70
2023/10/09 13:34:30;;;;;;;7.10;1.53;;;;;;;20.49;36.58;97476.56;4988469;28;20601;-71
2023/10/09 13:36:59;;;;;;;5.83;1.90;;;;;;;20.35;36.82;97473.34;4969912;28;20200;-70
2023/10/09 13:39:27;;;;;;;5.87;1.53;;;;;;;20.32;37.46;97471.78;4956085;28;20196;-75
2023/10/09 13:42:25;;;;;;;9.57;1.90;;;;;;;20.25;37.26;97470.59;4991376;28;20205;-71
2023/10/09 13:44:56;;;;;;;4.07;1.73;;;;;;;20.32;37.00;97456.00;4971961;28;20224;-75
2023/10/09 13:47:31;;;;;;;8.53;2.23;;;;;;;20.30;37.42;97450.00;4988309;28;20310;-73
2023/10/09 13:50:00;;;;;;;4.17;1.80;;;;;;;20.46;37.10;97458.41;4987775;28;20187;-73
2023/10/09 13:52:32;;;;;;;14.00;2.10;;;;;;;20.34;37.12;97461.97;4988876;28;20204;-73
2023/10/09 13:55:15;;;;;;;6.80;2.63;;;;;;;19.65;38.27;97444.53;4986359;28;20231;-78
2023/10/09 13:57:45;;;;;;;5.23;1.63;;;;;;;19.88;37.44;97438.38;4987168;28;20568;-71
2023/10/09 14:00:33;;;;;;;6.17;1.60;;;;;;;20.09;37.59;97455.13;4986498;28;20188;-71
2023/10/09 14:03:03;;;;;;;3.30;1.80;;;;;;;20.04;37.35;97444.13;4986080;28;20188;-76
2023/10/09 14:05:30;;;;;;;6.63;2.17;;;;;;;19.98;37.77;97433.25;4986422;28;21088;-76
2023/10/09 14:08:00;;;;;;;7.03;2.30;;;;;;;19.96;37.55;97424.63;4986754;28;20762;-71
2023/10/09 14:10:30;;;;;;;7.63;2.63;;;;;;;20.25;37.39;97441.66;4987392;28;20656;-71
2023/10/09 14:12:57;;;;;;;7.63;1.83;;;;;;;20.14;37.26;97437.19;4986358;28;20198;-70
2023/10/09 14:15:26;;;;;;;3.60;1.60;;;;;;;20.17;37.28;97433.50;4985584;28;20191;-74
2023/10/09 14:17:55;;;;;;;4.70;1.80;;;;;;;20.05;36.97;97432.63;4985670;28;20278;-72
2023/10/09 14:20:32;;;;;;;8.07;2.23;;;;;;;19.84;37.44;97433.47;4986418;28;20319;-70
2023/10/09 14:23:07;;;;;;;5.40;1.70;;;;;;;19.76;37.99;97426.19;4994159;28;20636;-74
2023/10/09 14:25:39;;;;;;;7.87;2.37;;;;;;;19.67;37.47;97421.59;4988267;28;20704;-74
2023/10/09 14:28:08;;;;;;;5.13;2.57;;;;;;;19.95;37.57;97436.09;4970764;28;20193;-73
2023/10/09 14:30:42;;;;;;;6.57;2.43;;;;;;;20.10;37.37;97429.66;4986300;28;20227;-73
2023/10/09 14:33:15;;;;;;;9.47;2.43;;;;;;;20.07;37.59;97443.88;4986513;28;20206;-82
2023/10/09 14:36:23;;;;;;;6.97;1.80;;;;;;;19.98;37.76;97438.50;4999858;28;20203;-72
2023/10/09 14:39:04;;;;;;;3.20;2.13;;;;;;;19.72;38.04;97431.78;4990078;28;20217;-69
2023/10/09 14:41:33;;;;;;;6.57;2.50;;;;;;;19.80;37.38;97430.25;5004771;28;20199;-70
2023/10/09 14:44:04;;;;;;;6.27;2.40;;;;;;;20.01;37.73;97439.09;5005685;28;20707;-73
2023/10/09 14:46:32;;;;;;;5.33;1.93;;;;;;;20.00;37.71;97437.44;5004692;28;20294;-78
2023/10/09 14:49:00;;;;;;;3.47;2.37;;;;;;;19.65;38.15;97425.28;5021350;28;20237;-71